Monday, December 10, 2018, 10:20 PM EST
Back to Local

KFMH, Otis Air National Guard Base

Location: Mashpee, MA, United States Lat: 41.65
Local Time: 10:20 PM EST ( 3:20 GMT) Lon: -70.517
Time Zone: US/Eastern Elev: 131 ft

Show me the last for .
Show Coded

Time T Td Feel RH Dir Speed Gust Alt SLP Vis Weather Sky Remarks
2018-12-10 21:55 27 16 23 63 Variable 3 - 30.16 - 10 CLR None
2018-12-10 21:35 28 14 22 54 350° 6 - 30.16 - 10 CLR None
2018-12-10 21:15 27 14 21 58 350° 5 - 30.16 - 10 CLR None
2018-12-10 20:55 28 14 25 54 10° 3 - 30.16 - 10 CLR None
2018-12-10 20:35 28 14 22 54 350° 6 - 30.16 - 10 CLR None
2018-12-10 20:15 28 14 22 54 350° 6 - 30.15 - 10 CLR None
2018-12-10 19:55 28 14 21 54 340° 7 - 30.16 - 10 CLR None
2018-12-10 19:35 28 16 22 58 330° 6 - 30.15 - 10 FEW033 None
2018-12-10 19:15 28 16 23 58 330° 5 - 30.14 - 10 FEW034 None
2018-12-10 18:55 28 16 23 58 330° 5 - 30.13 - 10 FEW035 None
2018-12-10 18:35 25 18 19 73 340° 5 - 30.13 - 10 CLR None
2018-12-10 18:15 28 18 25 63 340° 3 - 30.12 - 10 CLR None
2018-12-10 17:55 28 19 23 68 340° 5 - 30.12 - 10 FEW035 None
2018-12-10 17:35 30 19 27 63 350° 3 - 30.12 - 10 SCT035 None
2018-12-10 17:15 30 19 - 63 - Calm - 30.11 - 10 SCT038 None
2018-12-10 16:55 30 21 - 68 - Calm - 30.11 - 10 CLR None
2018-12-10 16:35 32 21 - 63 - Calm - 30.11 - 10 CLR None
2018-12-10 16:15 32 21 27 63 360° 5 - 30.11 - 10 CLR None
2018-12-10 15:55 34 21 25 59 350° 5 13 30.10 - 10 CLR None
2018-12-10 15:35 34 21 27 59 350° 8 - 30.10 - 10 CLR None
2018-12-10 15:15 36 21 30 55 Variable 7 - 30.08 - 10 CLR None
2018-12-10 14:55 36 23 28 59 360° 12 - 30.08 - 10 FEW031 FEW037 None
2018-12-10 14:35 36 23 28 59 20° 10 - 30.08 - 10 FEW031 BKN038 None
2018-12-10 14:15 37 23 30 55 360° 12 - 30.08 - 10 OVC037 None
2018-12-10 13:55 36 23 28 59 10° 10 - 30.07 - 10 OVC038 None
2018-12-10 13:35 36 23 26 59 350° 9 16 30.06 - 10 OVC038 None
2018-12-10 13:15 36 25 25 64 360° 12 21 30.06 - 10 OVC036 None
2018-12-10 12:55 37 25 29 60 10° 13 - 30.05 - 10 BKN035 None
2018-12-10 12:35 36 25 24 64 340° 15 22 30.05 - 10 BKN035 None
2018-12-10 12:15 36 25 25 64 350° 10 17 30.05 - 10 BKN035 None
2018-12-10 11:55 36 25 25 64 350° 12 20 30.05 - 10 BKN035 None
2018-12-10 11:35 37 25 30 60 360° 12 - 30.06 - 10 BKN035 None
2018-12-10 11:15 37 25 28 60 10° 12 17 30.05 - 10 BKN035 None
2018-12-10 10:55 36 23 30 59 Variable 7 - 30.06 - 10 BKN035 None
2018-12-10 10:35 36 23 29 59 330° 8 - 30.07 - 10 OVC035 None
2018-12-10 10:15 34 23 26 64 320° 9 - 30.08 - 10 OVC038 None
2018-12-10 09:55 32 23 24 68 330° 9 - 30.08 - 10 OVC035 None
2018-12-10 09:35 32 21 16 63 330° 8 41 30.08 - 10 OVC035 None
2018-12-10 09:15 30 21 21 68 320° 10 - 30.07 - 10 OVC035 None
2018-12-10 08:55 30 21 23 68 330° 8 - 30.07 - 10 OVC035 None
2018-12-10 08:35 28 19 21 68 330° 7 - 30.06 - 10 BKN033 None
2018-12-10 08:15 27 19 19 73 320° 7 - 30.06 - 10 BKN029 OVC034 None
2018-12-10 07:55 27 18 18 68 330° 8 - 30.05 - 10 BKN028 None
2018-12-10 07:35 25 18 16 73 320° 8 - 30.05 - 10 BKN029 None
2018-12-10 07:15 25 16 17 68 330° 7 - 30.05 - 10 SCT029 None
2018-12-10 06:55 25 16 17 68 330° 7 - 30.05 - 10 SCT028 None
2018-12-10 06:35 23 16 16 73 320° 6 - 30.05 - 10 BKN026 BKN031 None
2018-12-10 06:15 23 16 16 73 320° 6 - 30.05 - 10 SCT029 None
2018-12-10 05:55 23 14 17 67 320° 5 - 30.05 - 10 FEW027 None
2018-12-10 05:35 23 14 18 67 310° 3 - 30.05 - 10 CLR None
2018-12-10 05:15 23 14 17 67 330° 5 - 30.04 - 10 CLR None
2018-12-10 04:55 23 14 17 67 330° 5 - 30.05 - 10 CLR None
2018-12-10 04:35 23 14 17 67 320° 5 - 30.04 - 10 CLR None
2018-12-10 04:15 25 14 19 62 320° 5 - 30.05 - 10 CLR None
2018-12-10 03:55 25 16 19 68 330° 5 - 30.06 - 10 CLR None
2018-12-10 03:35 25 16 19 68 310° 5 - 30.06 - 10 CLR None
2018-12-10 03:15 25 16 16 68 320° 8 - 30.06 - 10 CLR None
2018-12-10 02:55 27 16 21 63 320° 5 - 30.08 - 10 CLR None
2018-12-10 02:35 27 18 19 68 320° 7 - 30.08 - 10 CLR None
2018-12-10 02:15 27 18 21 68 320° 5 - 30.08 - 10 CLR None
2018-12-10 01:55 27 18 20 68 310° 6 - 30.09 - 10 CLR None
2018-12-10 01:35 27 19 20 73 310° 6 - 30.09 - 10 CLR None
2018-12-10 01:15 28 19 22 68 300° 6 - 30.09 - 10 CLR None
2018-12-10 00:55 28 21 20 74 290° 8 - 30.10 - 10 CLR None
2018-12-10 00:35 30 21 23 68 290° 8 - 30.10 - 10 CLR None
2018-12-10 00:15 30 23 23 74 290° 8 - 30.11 - 10 CLR None
2018-12-09 23:55 32 23 23 68 280° 12 - 30.12 - 10 CLR None
2018-12-09 23:35 32 23 24 68 280° 10 - 30.13 - 10 CLR None
2018-12-09 23:15 32 23 23 68 260° 13 - 30.15 - 10 CLR None
2018-12-09 22:55 32 23 20 68 260° 14 21 30.16 - 10 CLR None
2018-12-09 22:35 32 23 23 68 260° 13 - 30.17 - 10 CLR None

Support USWX by starting your Amazon purchase here.